createdAt,value
2018-12-06T00:00:23.428Z,5.00
2018-12-06T00:03:30.109Z,4.90
2018-12-06T00:06:37.504Z,5.00
2018-12-06T00:09:43.596Z,5.00
2018-12-06T00:12:49.704Z,4.90
2018-12-06T00:15:55.871Z,4.80
2018-12-06T00:19:08.396Z,4.90
2018-12-06T00:22:14.566Z,4.90
2018-12-06T00:25:20.681Z,4.90
2018-12-06T00:28:26.812Z,4.90
2018-12-06T00:31:32.905Z,4.80
2018-12-06T00:34:39.614Z,4.80
2018-12-06T00:37:45.773Z,5.00
2018-12-06T00:40:51.839Z,5.10
2018-12-06T00:43:57.931Z,5.20
2018-12-06T00:47:04.116Z,5.20
2018-12-06T00:50:10.199Z,5.20
2018-12-06T00:53:16.461Z,5.10
2018-12-06T00:56:22.710Z,5.10
2018-12-06T00:59:28.839Z,5.10
2018-12-06T01:02:35.160Z,5.10
2018-12-06T01:05:41.374Z,5.10
2018-12-06T01:08:47.527Z,5.10
2018-12-06T01:11:53.907Z,5.20
2018-12-06T01:15:00.052Z,5.20
2018-12-06T01:18:06.154Z,5.10
2018-12-06T01:21:12.725Z,5.40
2018-12-06T01:24:19.628Z,5.40
2018-12-06T01:27:26.039Z,5.30
2018-12-06T01:30:32.166Z,5.30
2018-12-06T01:33:39.057Z,5.20
2018-12-06T01:36:45.154Z,5.20
2018-12-06T01:39:52.041Z,5.30
2018-12-06T01:42:58.250Z,5.30
2018-12-06T01:46:04.311Z,5.10
2018-12-06T01:49:10.419Z,5.20
2018-12-06T01:52:16.608Z,5.30
2018-12-06T01:55:23.210Z,5.30
2018-12-06T01:58:29.301Z,5.30
2018-12-06T02:01:35.343Z,5.30
2018-12-06T02:04:41.411Z,5.40
2018-12-06T02:07:47.565Z,5.40
2018-12-06T02:10:54.153Z,5.20
2018-12-06T02:14:00.361Z,5.10
2018-12-06T02:17:06.649Z,5.10
2018-12-06T02:20:12.764Z,5.20
2018-12-06T02:23:19.161Z,5.20
2018-12-06T02:26:26.200Z,5.30
2018-12-06T02:29:37.773Z,5.30
2018-12-06T02:32:44.200Z,5.30
2018-12-06T02:35:50.503Z,5.40
2018-12-06T02:38:56.706Z,5.40
2018-12-06T02:42:02.875Z,5.20
2018-12-06T02:45:09.040Z,5.20
2018-12-06T02:48:15.383Z,5.30
2018-12-06T02:51:21.917Z,5.40
2018-12-06T02:54:28.548Z,5.30
2018-12-06T02:57:34.597Z,5.30
2018-12-06T03:00:40.711Z,5.30
2018-12-06T03:03:46.794Z,5.40
2018-12-06T03:06:52.885Z,5.40
2018-12-06T03:09:59.780Z,5.40
2018-12-06T03:13:06.299Z,5.40
2018-12-06T03:16:12.583Z,5.40
2018-12-06T03:19:18.682Z,5.30
2018-12-06T03:22:24.747Z,5.30
2018-12-06T03:25:30.810Z,5.30
2018-12-06T03:28:38.117Z,5.30
2018-12-06T03:31:44.219Z,5.30
2018-12-06T03:34:50.514Z,5.30
2018-12-06T03:37:56.589Z,5.10
2018-12-06T03:41:02.784Z,5.10
2018-12-06T03:44:09.049Z,5.10
2018-12-06T03:47:15.539Z,5.20
2018-12-06T03:50:21.678Z,5.20
2018-12-06T03:53:27.918Z,5.20
2018-12-06T03:56:34.071Z,5.10
2018-12-06T03:59:40.186Z,5.10
2018-12-06T04:02:47.021Z,5.20
2018-12-06T04:05:53.216Z,5.10
2018-12-06T04:08:59.277Z,5.10
2018-12-06T04:12:05.559Z,5.00
2018-12-06T04:15:12.007Z,5.00
2018-12-06T04:18:18.118Z,5.00
2018-12-06T04:21:24.256Z,5.10
2018-12-06T04:24:30.341Z,5.10
2018-12-06T04:27:36.453Z,5.10
2018-12-06T04:30:42.669Z,5.10
2018-12-06T04:33:49.298Z,5.10
2018-12-06T04:36:55.476Z,5.00
2018-12-06T04:40:01.564Z,4.90
2018-12-06T04:43:07.702Z,5.10
2018-12-06T04:46:13.902Z,5.10
2018-12-06T04:49:20.689Z,5.30
2018-12-06T04:52:26.778Z,5.20
2018-12-06T04:55:32.874Z,5.20
2018-12-06T04:58:39.126Z,5.10
2018-12-06T05:01:45.313Z,5.10
2018-12-06T05:04:51.464Z,5.10
2018-12-06T05:07:57.677Z,5.10
2018-12-06T05:11:03.777Z,5.00
2018-12-06T05:14:09.832Z,4.90
2018-12-06T05:17:16.188Z,4.90
2018-12-06T05:20:22.316Z,4.60
2018-12-06T05:23:28.726Z,4.50
2018-12-06T05:26:34.810Z,4.40
2018-12-06T05:29:41.012Z,4.50
2018-12-06T05:32:47.193Z,4.60
2018-12-06T05:35:53.433Z,4.50
2018-12-06T05:39:00.169Z,4.50
2018-12-06T05:42:06.274Z,4.60
2018-12-06T05:45:12.397Z,4.70
2018-12-06T05:48:18.661Z,4.60
2018-12-06T05:51:25.017Z,4.70
2018-12-06T05:54:32.021Z,4.70
2018-12-06T05:57:38.119Z,4.70
2018-12-06T06:00:44.246Z,4.80
2018-12-06T06:03:50.522Z,4.80
2018-12-06T06:06:58.603Z,4.70
2018-12-06T06:10:05.871Z,4.70
2018-12-06T06:13:12.060Z,4.80
2018-12-06T06:16:18.217Z,4.90
2018-12-06T06:19:24.324Z,5.00
2018-12-06T06:22:30.518Z,5.00
2018-12-06T06:25:37.052Z,5.10
2018-12-06T06:28:43.297Z,5.00
2018-12-06T06:31:49.395Z,5.20
2018-12-06T06:34:55.627Z,5.10
2018-12-06T06:38:01.783Z,5.20
2018-12-06T06:41:08.520Z,5.20
2018-12-06T06:44:14.722Z,5.20
2018-12-06T06:47:20.930Z,5.10
2018-12-06T06:50:27.031Z,5.10
2018-12-06T06:53:33.168Z,5.10
2018-12-06T06:56:40.066Z,5.20
2018-12-06T06:59:46.372Z,5.10
2018-12-06T07:02:52.858Z,5.10
2018-12-06T07:05:59.016Z,5.10
2018-12-06T07:09:07.854Z,5.10
2018-12-06T07:12:14.634Z,5.00
2018-12-06T07:15:20.847Z,5.10
2018-12-06T07:18:26.972Z,5.10
2018-12-06T07:21:33.334Z,5.10
2018-12-06T07:24:39.768Z,5.10
2018-12-06T07:27:46.518Z,5.10
2018-12-06T07:30:57.009Z,5.30
2018-12-06T07:34:03.400Z,5.20
2018-12-06T07:37:09.873Z,5.30
2018-12-06T07:40:16.569Z,5.40
2018-12-06T07:43:23.096Z,5.40
2018-12-06T07:46:29.595Z,5.60
2018-12-06T07:49:35.856Z,5.70
2018-12-06T07:52:42.167Z,5.70
2018-12-06T07:55:48.341Z,5.90
2018-12-06T07:58:55.044Z,6.10
2018-12-06T08:02:01.399Z,6.10
2018-12-06T08:05:08.199Z,6.20
2018-12-06T08:08:19.231Z,6.00
2018-12-06T08:11:25.359Z,5.90
2018-12-06T08:14:31.784Z,5.90
2018-12-06T08:17:38.071Z,5.90
2018-12-06T08:20:44.401Z,5.80
2018-12-06T08:23:50.876Z,5.70
2018-12-06T08:27:11.930Z,5.70
2018-12-06T08:30:18.285Z,5.60
2018-12-06T08:33:27.519Z,5.60
2018-12-06T08:36:33.624Z,5.60
2018-12-06T08:39:40.231Z,5.70
2018-12-06T08:42:46.712Z,5.60
2018-12-06T08:45:52.916Z,5.70
2018-12-06T08:49:03.042Z,5.70
2018-12-06T08:52:08.997Z,5.90
2018-12-06T08:55:15.586Z,6.20
2018-12-06T08:58:21.873Z,6.40
2018-12-06T09:01:28.554Z,6.80
2018-12-06T09:04:38.675Z,7.10
2018-12-06T09:07:45.265Z,7.20
2018-12-06T09:10:51.965Z,7.20
2018-12-06T09:14:00.846Z,7.20
2018-12-06T09:17:07.920Z,7.40
2018-12-06T09:20:16.582Z,7.40
2018-12-06T09:23:23.138Z,7.10
2018-12-06T09:26:29.477Z,7.10
2018-12-06T09:29:36.219Z,6.90
2018-12-06T09:32:42.530Z,6.70
2018-12-06T09:35:49.360Z,6.60
2018-12-06T09:38:55.705Z,6.60
2018-12-06T09:42:01.825Z,6.60
2018-12-06T09:45:13.769Z,6.50
2018-12-06T09:48:20.048Z,6.60
2018-12-06T09:51:27.096Z,6.60
2018-12-06T09:54:33.362Z,6.60
2018-12-06T09:57:40.129Z,6.40
2018-12-06T10:00:46.751Z,6.40
2018-12-06T10:03:52.921Z,6.40
2018-12-06T10:06:59.091Z,6.50
2018-12-06T10:10:05.907Z,6.50
2018-12-06T10:13:17.018Z,6.40
2018-12-06T10:16:23.128Z,6.50
2018-12-06T10:19:30.834Z,6.60
2018-12-06T10:22:36.944Z,7.10
2018-12-06T10:25:43.097Z,7.40
2018-12-06T10:28:50.507Z,7.50
2018-12-06T10:31:58.123Z,7.50
2018-12-06T10:35:04.797Z,7.50
2018-12-06T10:38:10.926Z,7.40
2018-12-06T10:41:17.825Z,7.30
2018-12-06T10:44:33.344Z,7.30
2018-12-06T10:47:39.455Z,7.30
2018-12-06T10:50:45.589Z,7.30
2018-12-06T10:53:51.681Z,7.30
2018-12-06T10:56:57.817Z,7.20
2018-12-06T11:00:06.690Z,7.20
2018-12-06T11:03:17.013Z,7.20
2018-12-06T11:06:23.193Z,7.30
2018-12-06T11:09:29.472Z,7.20
2018-12-06T11:12:35.636Z,7.10
2018-12-06T11:15:41.815Z,7.10
2018-12-06T11:18:49.760Z,7.20
2018-12-06T11:21:55.964Z,7.10
2018-12-06T11:25:05.004Z,7.30
2018-12-06T11:28:11.977Z,7.30
2018-12-06T11:31:18.173Z,7.30
2018-12-06T11:34:24.947Z,7.50
2018-12-06T11:37:31.059Z,7.60
2018-12-06T11:40:37.254Z,7.60
2018-12-06T11:43:43.357Z,7.40
2018-12-06T11:46:49.442Z,7.40
2018-12-06T11:49:55.628Z,7.20
2018-12-06T11:53:01.791Z,7.10
2018-12-06T11:56:08.184Z,7.00
2018-12-06T11:59:16.858Z,6.90
2018-12-06T12:02:23.110Z,6.80
2018-12-06T12:05:30.182Z,7.00
2018-12-06T12:08:36.365Z,7.00
2018-12-06T12:11:42.599Z,6.90
2018-12-06T12:14:48.757Z,6.90
2018-12-06T12:17:54.924Z,7.00
2018-12-06T12:21:02.622Z,7.10
2018-12-06T12:24:08.743Z,7.30
2018-12-06T12:27:15.142Z,7.50
2018-12-06T12:30:21.447Z,7.50
2018-12-06T12:33:27.693Z,7.50
2018-12-06T12:36:34.575Z,7.70
2018-12-06T12:39:40.863Z,7.60
2018-12-06T12:42:47.121Z,7.60
2018-12-06T12:45:53.635Z,7.60
2018-12-06T12:49:00.128Z,7.60
2018-12-06T12:52:07.008Z,7.80
2018-12-06T12:55:13.319Z,7.90
2018-12-06T12:58:19.537Z,8.00
2018-12-06T13:01:25.828Z,7.90
2018-12-06T13:04:36.389Z,7.80
2018-12-06T13:07:42.714Z,7.80
2018-12-06T13:10:49.048Z,7.80
2018-12-06T13:14:11.983Z,7.70
2018-12-06T13:17:18.163Z,7.60
2018-12-06T13:20:24.314Z,7.50
2018-12-06T13:23:30.555Z,7.20
2018-12-06T13:26:36.747Z,7.40
2018-12-06T13:29:42.875Z,7.50
2018-12-06T13:32:49.048Z,7.60
2018-12-06T13:35:56.921Z,7.60
2018-12-06T13:39:03.656Z,7.70
2018-12-06T13:42:09.937Z,7.50
2018-12-06T13:45:17.423Z,7.30
2018-12-06T13:48:23.583Z,7.20
2018-12-06T13:51:30.547Z,7.10
2018-12-06T13:54:36.795Z,7.10
2018-12-06T13:57:42.901Z,7.00
2018-12-06T14:00:49.562Z,7.00
2018-12-06T14:03:56.253Z,7.00
2018-12-06T14:07:02.524Z,7.10
2018-12-06T14:10:08.790Z,7.30
2018-12-06T14:13:15.110Z,7.40
2018-12-06T14:16:22.131Z,7.50
2018-12-06T14:19:28.290Z,7.60
2018-12-06T14:22:34.389Z,7.60
2018-12-06T14:25:40.513Z,7.60
2018-12-06T14:29:32.272Z,7.60
2018-12-06T14:32:38.503Z,7.50
2018-12-06T14:35:44.771Z,7.40
2018-12-06T14:38:55.542Z,7.40
2018-12-06T14:42:02.016Z,7.40
2018-12-06T14:45:08.499Z,7.40
2018-12-06T14:48:19.059Z,7.40
2018-12-06T14:51:27.618Z,7.40
2018-12-06T14:54:33.959Z,7.30
2018-12-06T14:57:40.298Z,7.40
2018-12-06T15:00:46.404Z,7.50
2018-12-06T15:03:52.553Z,7.40
2018-12-06T15:06:59.455Z,7.30
2018-12-06T15:10:07.509Z,7.40
2018-12-06T15:13:13.841Z,7.40
2018-12-06T15:16:20.058Z,7.40
2018-12-06T15:19:26.566Z,7.30
2018-12-06T15:22:33.535Z,7.30
2018-12-06T15:25:41.940Z,7.30
2018-12-06T15:28:48.137Z,7.40
2018-12-06T15:31:54.564Z,7.30
2018-12-06T15:35:00.937Z,7.40
2018-12-06T15:38:07.156Z,7.30
2018-12-06T15:41:13.546Z,7.40
2018-12-06T15:44:19.850Z,7.50
2018-12-06T15:47:26.027Z,7.40
2018-12-06T15:50:32.411Z,7.50
2018-12-06T15:53:38.583Z,7.50
2018-12-06T15:56:48.797Z,7.50
2018-12-06T15:59:54.960Z,7.40
2018-12-06T16:03:01.353Z,7.20
2018-12-06T16:06:07.722Z,7.20
2018-12-06T16:09:14.339Z,7.30
2018-12-06T16:12:20.808Z,7.30
2018-12-06T16:15:27.498Z,7.30
2018-12-06T16:18:35.756Z,7.60
2018-12-06T16:21:42.908Z,7.60
2018-12-06T16:24:49.406Z,7.70
2018-12-06T16:27:56.241Z,7.70
2018-12-06T16:31:02.707Z,7.70
2018-12-06T16:34:08.977Z,7.70
2018-12-06T16:37:15.504Z,7.70
2018-12-06T16:40:21.851Z,7.70
2018-12-06T16:43:28.302Z,7.90
2018-12-06T16:46:34.611Z,7.90
2018-12-06T16:49:41.039Z,7.90
2018-12-06T16:52:48.864Z,7.80
2018-12-06T16:55:55.203Z,7.80
2018-12-06T16:59:01.528Z,7.70
2018-12-06T17:02:08.003Z,7.80
2018-12-06T17:05:14.292Z,8.00
2018-12-06T17:08:20.660Z,8.10
2018-12-06T17:11:27.213Z,8.10
2018-12-06T17:14:33.468Z,8.10
2018-12-06T17:17:39.807Z,8.20
2018-12-06T17:20:46.201Z,8.20
2018-12-06T17:23:52.870Z,8.20
2018-12-06T17:26:59.201Z,8.30
2018-12-06T17:30:06.700Z,8.30
2018-12-06T17:33:13.181Z,8.30
2018-12-06T17:36:19.586Z,8.30
2018-12-06T17:39:25.850Z,8.40
2018-12-06T17:42:32.170Z,8.60
2018-12-06T17:45:38.399Z,8.70
2018-12-06T17:48:44.646Z,8.70
2018-12-06T17:51:50.964Z,8.70
2018-12-06T17:54:58.194Z,8.80
2018-12-06T17:58:04.751Z,8.80
2018-12-06T18:01:11.437Z,8.90
2018-12-06T18:07:29.831Z,9.00
2018-12-06T18:10:37.424Z,9.00
2018-12-06T18:13:44.075Z,8.90
2018-12-06T18:16:50.889Z,8.90
2018-12-06T18:19:57.353Z,8.90
2018-12-06T18:23:03.821Z,9.00
2018-12-06T18:26:10.394Z,9.00
2018-12-06T18:29:16.936Z,9.00
2018-12-06T18:32:23.545Z,9.00
2018-12-06T18:35:32.477Z,9.10
2018-12-06T18:38:40.035Z,9.00
2018-12-06T18:41:46.345Z,9.00
2018-12-06T18:44:52.608Z,9.10
2018-12-06T18:47:58.876Z,9.00
2018-12-06T18:51:05.153Z,9.10
2018-12-06T18:54:11.928Z,9.00
2018-12-06T18:57:18.352Z,9.00
2018-12-06T19:00:26.750Z,8.90
2018-12-06T19:03:33.069Z,9.00
2018-12-06T19:06:45.797Z,9.00
2018-12-06T19:09:52.118Z,9.00
2018-12-06T19:13:05.186Z,9.10
2018-12-06T19:16:11.985Z,9.10
2018-12-06T19:19:19.023Z,9.10
2018-12-06T19:22:28.987Z,9.00
2018-12-06T19:25:35.407Z,9.10
2018-12-06T19:28:41.904Z,9.00
2018-12-06T19:31:48.203Z,9.00
2018-12-06T19:34:54.763Z,9.10
2018-12-06T19:38:01.232Z,9.00
2018-12-06T19:41:07.497Z,9.00
2018-12-06T19:44:14.920Z,9.00
2018-12-06T19:47:21.358Z,9.00
2018-12-06T19:50:27.687Z,9.10
2018-12-06T19:53:34.005Z,9.10
2018-12-06T19:56:40.812Z,9.10
2018-12-06T19:59:47.453Z,9.20
2018-12-06T20:02:53.922Z,9.20
2018-12-06T20:06:00.279Z,9.30
2018-12-06T20:09:09.391Z,9.30
2018-12-06T20:12:17.029Z,9.50
2018-12-06T20:15:23.431Z,9.40
2018-12-06T20:18:29.866Z,9.50
2018-12-06T20:21:37.181Z,9.60
2018-12-06T20:24:43.767Z,9.60
2018-12-06T20:27:50.546Z,9.60
2018-12-06T20:30:57.173Z,9.60
2018-12-06T20:34:03.681Z,9.80
2018-12-06T20:37:10.847Z,9.90
2018-12-06T20:40:17.346Z,9.90
2018-12-06T20:43:23.685Z,10.00
2018-12-06T20:46:30.050Z,10.00
2018-12-06T20:49:36.428Z,10.10
2018-12-06T20:52:43.230Z,10.20
2018-12-06T20:55:49.865Z,10.20
2018-12-06T20:58:56.285Z,10.20
2018-12-06T21:02:02.784Z,10.20
2018-12-06T21:05:09.474Z,10.20
2018-12-06T21:08:16.353Z,10.20
2018-12-06T21:11:22.680Z,10.20
2018-12-06T21:14:29.118Z,10.30
2018-12-06T21:17:36.318Z,10.40
2018-12-06T21:20:42.668Z,10.30
2018-12-06T21:23:49.118Z,10.40
2018-12-06T21:26:55.385Z,10.30
2018-12-06T21:30:01.647Z,10.40
2018-12-06T21:33:08.751Z,10.40
2018-12-06T21:36:15.459Z,10.50
2018-12-06T21:39:21.847Z,10.50
2018-12-06T21:42:28.096Z,10.60
2018-12-06T21:45:34.309Z,10.60
2018-12-06T21:48:41.228Z,10.50
2018-12-06T21:51:47.440Z,10.60
2018-12-06T21:54:53.612Z,10.60
2018-12-06T21:58:00.035Z,10.50
2018-12-06T22:01:06.292Z,10.40
2018-12-06T22:04:12.772Z,10.40
2018-12-06T22:07:18.929Z,10.40
2018-12-06T22:10:25.163Z,10.40
2018-12-06T22:13:31.358Z,10.40
2018-12-06T22:16:38.104Z,10.50
2018-12-06T22:19:44.398Z,10.50
2018-12-06T22:22:50.800Z,10.60
2018-12-06T22:25:57.128Z,10.50
2018-12-06T22:29:03.371Z,10.50
2018-12-06T22:32:09.972Z,10.70
2018-12-06T22:35:16.114Z,10.70
2018-12-06T22:38:22.338Z,10.70
2018-12-06T22:41:28.590Z,10.80
2018-12-06T22:44:34.813Z,10.80
2018-12-06T22:47:41.001Z,10.70
2018-12-06T22:50:47.262Z,10.80
2018-12-06T22:53:53.501Z,10.80
2018-12-06T22:57:00.333Z,10.90
2018-12-06T23:00:09.522Z,10.80
2018-12-06T23:03:16.248Z,10.90
2018-12-06T23:06:22.476Z,10.90
2018-12-06T23:09:28.675Z,10.90
2018-12-06T23:12:34.838Z,10.90
2018-12-06T23:15:41.297Z,10.80
2018-12-06T23:18:47.638Z,10.90
2018-12-06T23:21:53.947Z,10.90
2018-12-06T23:25:00.258Z,10.80
2018-12-06T23:28:06.429Z,10.90
2018-12-06T23:31:12.823Z,11.00
2018-12-06T23:34:19.016Z,10.90
2018-12-06T23:37:25.344Z,11.00
2018-12-06T23:40:31.544Z,11.00
2018-12-06T23:43:38.020Z,11.00
2018-12-06T23:46:44.196Z,11.00
2018-12-06T23:49:50.491Z,11.00
2018-12-06T23:52:56.644Z,11.00
2018-12-06T23:56:02.933Z,11.00
2018-12-06T23:59:09.128Z,11.00
